Fire Weather Observation
Issued by NWS Grand Junction, CO

Home | Current Version | Previous Version | Graphics & Text | Print | Product List | Glossary On
Versions: 1 2 3 4 5 6 7 8 9 10 11 12 13 14 15 16 17 18 19 20 21 22 23 24 25 26 27 28 29 30 31 32 33 34 35 36 37 38 39 40 41 42 43 44 45 46 47 48 49 50
087
SHUS65 KGJT 252028
FWOGJT

DAILY FIRE WEATHER OBSERVATION
NATIONAL WEATHER SERVICE GRAND JUNCTION CO
228 PM MDT TUE JUL 25 2017

STATE OF THE WEATHER (W)               3
DRY BULB TEMPERATURE                   76   DEGREES FAHRENHEIT
RELATIVE HUMIDITY (RH)                 64   PERCENT
LIGHTNING ACTIVITY LEVEL
  (LAL - MIDNIGHT TO 2 PM)             3
WIND DIRECTION                         270  DEGREES (C IF CALM)
WIND SPEED                             9    MPH
MAX TEMP (2 PM - 2 PM)                 95   DEGREES FAHRENHEIT
MIN TEMP (2 PM - 2 PM)                 65   DEGREES FAHRENHEIT
MAX RH (2 PM - 2 PM)                   100  PERCENT
MIN RH (2 PM - 2 PM)                   19   PERCENT
PCPN DURATION                          6.8 HOURS
PCPN AMT (2 PM - 2 PM)                 0.09 INCHES
LAL (2 PM - 2 PM)                      5

$$

METAR KGJT 251953Z 28008KT 10SM SCT070 BKN100 24/17 A3014 RMK
      AO2 LTG DSNT SW SLP141 VCSH T02440172



USA.gov is the U.S. government's official web portal to all federal, state and local government web resources and services.